Rangeley, Maine
Current Conditions -  °F | °C
As of 5:49 AM on Thursday 27 Nov 2014 (Local Time) from KBML Reporting Station
Light Snow Light Snow  
Wind Chill: 21°   Ceiling: 2700
Heat Index: 27°   Visibility: 4mi
Dew Point: 21°   Wind: 5mph
Humidity: 80%   Direction: 330°NNW
Pressure: 29.82"   Gusts: NA
Location:  44.97°N, 70.65°W
Report Text: KBML 271049Z AUTO 33004KT 4SM -SN OVC027 M03/M06 A2982 RMK AO2 P0001
Loading
Personal Weather Stations






























Interactive Weather Map New forecast layout! Learn more

10-Day Weather Forecast

Advertisements
Track Severe Weather on mobile